Time;durP1;ratioP1;P1;durP2;ratioP2;P2;SDS_P1;SDS_P2;PMS_P1;PMS_P2;Temp;Humidity;BMP_temperature;BMP_pressure;BME280_temperature;BME280_humidity;BME280_pressure;Samples;Min_cycle;Max_cycle;Signal;HPM_P1;HPM_P2
2022/09/09 00:00:48;;;;;;;16.90;12.10;;;538.40;2406.40;;;;;;5044255;28;20117;-82
2022/09/09 00:03:25;;;;;;;21.20;12.45;;;538.40;2406.40;;;;;;5044554;28;20029;-80
2022/09/09 00:06:35;;;;;;;17.42;13.65;;;538.40;2406.40;;;;;;5081252;28;20163;-79
2022/09/09 00:09:16;;;;;;;16.25;13.23;;;538.20;2406.40;;;;;;5036724;28;20037;-82
2022/09/09 00:12:04;;;;;;;20.73;12.35;;;538.40;2406.40;;;;;;5042814;28;20037;-82
2022/09/09 00:15:00;;;;;;;17.20;12.43;;;538.50;2406.40;;;;;;5040744;28;20040;-82
2022/09/09 00:17:48;;;;;;;17.65;13.10;;;538.50;2406.40;;;;;;5048583;28;20151;-81
2022/09/09 00:20:26;;;;;;;18.63;13.00;;;538.50;2406.40;;;;;;5031111;28;20132;-81
2022/09/09 00:23:06;;;;;;;16.88;13.25;;;538.20;2406.40;;;;;;5042286;28;20517;-81
2022/09/09 00:25:53;;;;;;;19.75;13.88;;;538.30;2406.40;;;;;;5038473;28;20032;-82
2022/09/09 00:28:30;;;;;;;18.55;13.75;;;538.00;2406.40;;;;;;5042200;28;20053;-82
2022/09/09 00:31:00;;;;;;;22.67;15.52;;;538.00;2406.40;;;;;;5048660;28;20419;-82
2022/09/09 00:33:27;;;;;;;19.67;13.63;;;537.90;2406.40;;;;;;5041769;28;20044;-82
2022/09/09 00:35:58;;;;;;;20.30;13.48;;;537.80;2406.40;;;;;;5042093;28;20486;-82
2022/09/09 00:38:47;;;;;;;17.42;12.80;;;537.60;2406.40;;;;;;5078690;28;20035;-82
2022/09/09 00:41:26;;;;;;;19.80;12.25;;;512.90;2380.80;;;;;;5038421;28;20048;-82
2022/09/09 00:44:28;;;;;;;18.63;13.18;;;537.80;2406.40;;;;;;5037861;28;20034;-82
2022/09/09 00:47:03;;;;;;;15.67;12.50;;;537.90;2406.40;;;;;;5041053;28;20436;-82
2022/09/09 00:49:47;;;;;;;15.98;13.07;;;537.80;2406.40;;;;;;5043191;28;20278;-83
2022/09/09 00:52:22;;;;;;;16.92;12.70;;;537.60;2406.40;;;;;;5045161;28;20475;-82
2022/09/09 00:55:15;;;;;;;17.35;12.40;;;537.80;2406.40;;;;;;5037424;28;20108;-83
2022/09/09 00:57:42;;;;;;;16.40;12.45;;;537.80;2406.40;;;;;;5039683;28;20045;-82
2022/09/09 01:00:21;;;;;;;15.13;12.30;;;537.90;2406.40;;;;;;5038558;28;20372;-83
2022/09/09 01:03:12;;;;;;;16.25;12.15;;;537.80;2406.40;;;;;;5045393;28;20090;-83
2022/09/09 01:06:03;;;;;;;14.95;11.00;;;537.80;2406.40;;;;;;5031781;28;20025;-83
2022/09/09 01:08:34;;;;;;;15.35;12.43;;;537.90;2406.40;;;;;;5037901;28;20110;-81
2022/09/09 01:11:02;;;;;;;18.53;12.40;;;537.70;2406.40;;;;;;5043402;28;20155;-82
2022/09/09 01:13:34;;;;;;;15.65;12.13;;;537.80;2406.40;;;;;;5069884;28;20279;-82
2022/09/09 01:16:05;;;;;;;;;;;537.60;2406.40;;;;;;5040151;28;20083;-82
2022/09/09 01:18:52;;;;;;;19.60;11.95;;;537.80;2406.40;;;;;;5046276;28;19977;-82
2022/09/09 01:21:27;;;;;;;17.83;12.77;;;512.90;2380.80;;;;;;5044424;28;20029;-82
2022/09/09 01:24:28;;;;;;;17.10;12.20;;;512.90;2380.80;;;;;;5035794;28;20113;-82
2022/09/09 01:27:00;;;;;;;16.20;12.93;;;537.60;2406.40;;;;;;5038373;28;20029;-82
2022/09/09 01:29:26;;;;;;;20.75;11.55;;;512.80;2380.80;;;;;;5044425;28;20044;-83
2022/09/09 01:32:01;;;;;;;15.77;11.95;;;512.60;2380.80;;;;;;5036085;28;20033;-82
2022/09/09 01:34:40;;;;;;;15.15;11.43;;;512.70;2380.80;;;;;;5044921;28;20386;-82
2022/09/09 01:37:08;;;;;;;16.38;11.88;;;512.80;2380.80;;;;;;5038843;28;20041;-83
2022/09/09 01:39:37;;;;;;;14.45;11.85;;;512.60;2380.80;;;;;;5046302;28;20083;-84
2022/09/09 01:42:05;;;;;;;18.63;11.80;;;512.60;2380.80;;;;;;5052331;28;20048;-82
2022/09/09 01:44:32;;;;;;;20.02;13.32;;;512.80;2380.80;;;;;;5076548;28;20044;-82
2022/09/09 01:46:58;;;;;;;18.40;13.13;;;512.90;2380.80;;;;;;5037764;28;20120;-82
2022/09/09 01:49:23;;;;;;;19.00;12.30;;;512.90;2380.80;;;;;;5071144;28;20444;-83
2022/09/09 01:51:55;;;;;;;15.73;12.45;;;512.90;2380.80;;;;;;5040068;28;20028;-83
2022/09/09 01:54:23;;;;;;;16.60;13.48;;;537.60;2406.40;;;;;;5045554;28;20040;-82
2022/09/09 01:56:48;;;;;;;15.50;12.35;;;512.90;2380.80;;;;;;5037134;28;20053;-83
2022/09/09 01:59:31;;;;;;;21.75;13.65;;;512.90;2380.80;;;;;;5042984;28;20064;-84
2022/09/09 02:02:11;;;;;;;17.17;11.70;;;512.90;2380.80;;;;;;5040362;28;20052;-83
2022/09/09 02:04:49;;;;;;;15.55;12.68;;;512.90;2380.80;;;;;;5046493;28;20130;-81
2022/09/09 02:07:39;;;;;;;18.95;13.15;;;512.80;2380.80;;;;;;5056524;28;20032;-80
2022/09/09 02:10:20;;;;;;;16.92;11.75;;;512.90;2380.80;;;;;;5038515;28;20045;-83
2022/09/09 02:12:57;;;;;;;13.73;11.93;;;512.90;2380.80;;;;;;5040793;28;20021;-81
2022/09/09 02:15:29;;;;;;;18.73;12.30;;;512.90;2380.80;;;;;;5045407;28;20076;-81
2022/09/09 02:17:58;;;;;;;15.13;12.68;;;512.80;2380.80;;;;;;5078705;28;20029;-81
2022/09/09 02:20:27;;;;;;;17.83;12.93;;;512.50;2380.80;;;;;;5054981;28;20032;-81
2022/09/09 02:22:53;;;;;;;15.65;12.50;;;512.40;2380.80;;;;;;5053341;28;20041;-81
2022/09/09 02:25:23;;;;;;;15.23;12.43;;;512.60;2380.80;;;;;;5051201;28;20025;-82
2022/09/09 02:27:53;;;;;;;17.88;12.65;;;512.50;2380.80;;;;;;5044518;28;20036;-81
2022/09/09 02:30:20;;;;;;;19.95;13.07;;;512.50;2380.80;;;;;;5040796;28;20026;-82
2022/09/09 02:32:48;;;;;;;15.10;11.32;;;512.50;2380.80;;;;;;5042494;28;20033;-81
2022/09/09 02:35:20;;;;;;;17.63;11.88;;;512.60;2380.80;;;;;;5051178;28;20032;-82
2022/09/09 02:37:46;;;;;;;13.65;10.20;;;512.60;2380.80;;;;;;5050862;28;20053;-81
2022/09/09 02:40:15;;;;;;;20.80;11.88;;;512.60;2380.80;;;;;;5045025;28;20025;-81
2022/09/09 02:42:43;;;;;;;15.45;11.90;;;512.50;2380.80;;;;;;5046749;28;20039;-81
2022/09/09 02:45:12;;;;;;;16.02;11.93;;;512.50;2380.80;;;;;;5038677;28;20033;-81
2022/09/09 02:47:48;;;;;;;19.25;11.43;;;512.50;2380.80;;;;;;5047246;28;20497;-81
2022/09/09 02:50:31;;;;;;;17.33;11.93;;;512.60;2380.80;;;;;;5044939;28;20463;-82
2022/09/09 02:53:20;;;;;;;18.52;11.57;;;512.60;2380.80;;;;;;5042668;28;20053;-81
2022/09/09 02:56:09;;;;;;;15.30;11.40;;;512.60;2380.80;;;;;;5049386;28;20066;-81
2022/09/09 02:58:36;;;;;;;14.88;11.90;;;512.60;2380.80;;;;;;5048551;28;20030;-82
2022/09/09 03:01:02;;;;;;;21.38;12.25;;;512.70;2380.80;;;;;;5048818;28;20036;-82
2022/09/09 03:03:28;;;;;;;15.75;12.20;;;512.40;2380.80;;;;;;5054608;28;20035;-81
2022/09/09 03:05:54;;;;;;;17.20;12.93;;;512.40;2380.80;;;;;;5051578;28;20037;-82
2022/09/09 03:08:20;;;;;;;17.60;12.55;;;512.50;2380.80;;;;;;5044566;28;20081;-82
2022/09/09 03:10:46;;;;;;;16.75;12.35;;;512.40;2380.80;;;;;;5044281;28;20037;-81
2022/09/09 03:13:15;;;;;;;14.55;11.45;;;512.30;2380.80;;;;;;5037482;28;20120;-81
2022/09/09 03:15:41;;;;;;;14.98;11.35;;;512.40;2380.80;;;;;;5041963;28;20029;-81
2022/09/09 03:18:07;;;;;;;17.33;13.00;;;512.50;2380.80;;;;;;5045548;28;20029;-83
2022/09/09 03:20:33;;;;;;;17.17;12.10;;;512.60;2380.80;;;;;;5041175;28;20033;-81
2022/09/09 03:23:00;;;;;;;17.90;11.95;;;512.80;2380.80;;;;;;5042681;28;20084;-80
2022/09/09 03:25:26;;;;;;;18.60;12.65;;;512.80;2380.80;;;;;;5040830;28;20033;-81
2022/09/09 03:27:54;;;;;;;16.67;13.00;;;512.60;2380.80;;;;;;5047077;28;21463;-82
2022/09/09 03:30:27;;;;;;;17.02;12.40;;;512.60;2380.80;;;;;;5047027;28;20115;-82
2022/09/09 03:32:55;;;;;;;18.75;11.88;;;512.80;2380.80;;;;;;5049567;28;20029;-82
2022/09/09 03:35:21;;;;;;;18.52;11.98;;;512.60;2380.80;;;;;;5077574;28;20035;-82
2022/09/09 03:37:46;;;;;;;20.63;12.68;;;537.70;2406.40;;;;;;5054467;28;20049;-82
2022/09/09 03:40:13;;;;;;;18.42;11.82;;;512.50;2380.80;;;;;;5051059;28;20478;-81
2022/09/09 03:42:39;;;;;;;18.75;12.57;;;512.20;2380.80;;;;;;5048521;28;20037;-83
2022/09/09 03:45:09;;;;;;;20.83;12.18;;;512.20;2380.80;;;;;;5040616;28;20688;-82
2022/09/09 03:47:35;;;;;;;14.93;10.80;;;512.20;2380.80;;;;;;5046612;28;20083;-82
2022/09/09 03:50:01;;;;;;;15.63;10.93;;;512.30;2380.80;;;;;;5043150;28;20025;-82
2022/09/09 03:52:27;;;;;;;16.80;11.73;;;512.50;2380.80;;;;;;5042312;28;20025;-82
2022/09/09 03:54:53;;;;;;;14.77;11.57;;;512.20;2380.80;;;;;;5056212;28;20493;-82
2022/09/09 03:57:20;;;;;;;20.23;11.85;;;512.30;2380.80;;;;;;5041590;28;20083;-83
2022/09/09 03:59:46;;;;;;;19.75;11.57;;;512.30;2380.80;;;;;;5042841;28;20037;-82
2022/09/09 04:02:11;;;;;;;20.50;13.32;;;512.20;2380.80;;;;;;5045255;28;20033;-83
2022/09/09 04:04:38;;;;;;;15.07;11.75;;;;;;;;;;5047769;28;20037;-83
2022/09/09 04:07:06;;;;;;;20.52;11.48;;;487.10;2380.80;;;;;;5047149;28;20032;-83
2022/09/09 04:09:31;;;;;;;18.27;11.30;;;487.30;2380.80;;;;;;5040949;28;20037;-83
2022/09/09 04:11:57;;;;;;;14.05;10.45;;;487.30;2380.80;;;;;;5075268;28;20048;-82
2022/09/09 04:14:23;;;;;;;17.20;12.25;;;512.10;2380.80;;;;;;5041896;28;20025;-83
2022/09/09 04:16:48;;;;;;;17.77;13.57;;;512.20;2380.80;;;;;;5062992;28;20032;-82
2022/09/09 04:19:14;;;;;;;16.95;12.57;;;487.30;2380.80;;;;;;5042260;28;20136;-83
2022/09/09 04:21:41;;;;;;;15.65;11.60;;;512.20;2380.80;;;;;;5075531;28;20049;-83
2022/09/09 04:24:08;;;;;;;13.88;11.43;;;512.20;2380.80;;;;;;5045429;28;20116;-80
2022/09/09 04:26:36;;;;;;;18.17;11.68;;;537.80;2406.40;;;;;;5045001;28;20067;-83
2022/09/09 04:29:03;;;;;;;20.92;12.95;;;512.50;2380.80;;;;;;5039972;28;20033;-83
2022/09/09 04:31:29;;;;;;;19.17;13.55;;;512.30;2380.80;;;;;;5044194;28;20029;-83
2022/09/09 04:33:54;;;;;;;17.98;12.27;;;487.30;2380.80;;;;;;5041993;28;20035;-83
2022/09/09 04:36:21;;;;;;;20.30;13.65;;;512.20;2380.80;;;;;;5044280;28;20483;-82
2022/09/09 04:38:48;;;;;;;34.83;19.08;;;512.60;2380.80;;;;;;5044861;28;20025;-83
2022/09/09 04:41:16;;;;;;;30.17;14.48;;;512.40;2380.80;;;;;;5045439;28;20042;-82
2022/09/09 04:43:42;;;;;;;21.55;13.05;;;512.30;2380.80;;;;;;5043273;28;20059;-84
2022/09/09 04:46:08;;;;;;;19.88;13.10;;;512.40;2380.80;;;;;;5040717;28;20493;-84
2022/09/09 04:48:34;;;;;;;18.58;12.55;;;512.30;2380.80;;;;;;5037921;28;20471;-83
2022/09/09 04:51:03;;;;;;;23.15;13.68;;;512.30;2380.80;;;;;;5040945;28;20086;-83
2022/09/09 04:53:29;;;;;;;18.77;12.15;;;512.20;2380.80;;;;;;5045634;28;21852;-83
2022/09/09 04:56:12;;;;;;;23.27;12.57;;;512.20;2380.80;;;;;;5040690;28;20025;-80
2022/09/09 04:58:42;;;;;;;21.55;12.80;;;512.40;2380.80;;;;;;5038108;28;20494;-83
2022/09/09 05:01:11;;;;;;;21.27;12.48;;;512.40;2380.80;;;;;;5046067;28;20458;-83
2022/09/09 05:03:37;;;;;;;18.45;12.90;;;512.60;2380.80;;;;;;5045862;28;20394;-82
2022/09/09 05:06:09;;;;;;;25.48;14.80;;;512.40;2380.80;;;;;;5041734;28;20025;-83
2022/09/09 05:08:37;;;;;;;19.02;12.57;;;512.30;2380.80;;;;;;5042749;28;20024;-82
2022/09/09 05:11:11;;;;;;;19.17;12.50;;;512.30;2380.80;;;;;;5034466;28;20064;-82
2022/09/09 05:13:37;;;;;;;20.98;12.98;;;512.40;2380.80;;;;;;5038545;28;20029;-83
2022/09/09 05:16:03;;;;;;;17.40;13.05;;;512.40;2380.80;;;;;;5041643;28;20025;-84
2022/09/09 05:18:28;;;;;;;19.25;13.25;;;512.50;2380.80;;;;;;5043350;28;20074;-82
2022/09/09 05:20:59;;;;;;;18.60;12.73;;;512.50;2380.80;;;;;;5045050;28;20123;-83
2022/09/09 05:23:25;;;;;;;20.10;13.45;;;512.60;2380.80;;;;;;5042933;28;20028;-83
2022/09/09 05:25:58;;;;;;;21.83;13.95;;;512.50;2380.80;;;;;;5041608;28;20067;-83
2022/09/09 05:28:25;;;;;;;25.40;13.80;;;512.30;2380.80;;;;;;5057360;28;20032;-80
2022/09/09 05:30:58;;;;;;;22.15;13.93;;;512.70;2380.80;;;;;;5048428;28;20033;-83
2022/09/09 05:33:25;;;;;;;20.00;12.73;;;512.80;2380.80;;;;;;5045318;28;20032;-84
2022/09/09 05:36:13;;;;;;;17.63;13.00;;;512.90;2380.80;;;;;;5042989;28;20202;-83
2022/09/09 05:38:40;;;;;;;17.17;13.10;;;512.90;2380.80;;;;;;5042778;28;20026;-83
2022/09/09 05:41:06;;;;;;;19.25;12.55;;;538.00;2406.40;;;;;;5041949;28;20480;-83
2022/09/09 05:43:33;;;;;;;21.70;12.43;;;537.60;2406.40;;;;;;5074708;28;20037;-84
2022/09/09 05:46:04;;;;;;;21.08;12.10;;;537.60;2406.40;;;;;;5068645;28;20059;-83
2022/09/09 05:48:30;;;;;;;22.67;13.55;;;512.90;2380.80;;;;;;5045129;28;20378;-84
2022/09/09 05:50:57;;;;;;;25.52;14.07;;;512.90;2380.80;;;;;;5048796;28;20036;-83
2022/09/09 05:53:23;;;;;;;18.33;12.55;;;537.60;2406.40;;;;;;5052695;28;20029;-84
2022/09/09 05:55:49;;;;;;;26.40;14.30;;;512.90;2380.80;;;;;;5051536;28;20033;-83
2022/09/09 05:58:16;;;;;;;22.17;14.52;;;537.70;2406.40;;;;;;5051160;28;20449;-82
2022/09/09 06:00:43;;;;;;;24.95;15.45;;;512.90;2380.80;;;;;;5047292;28;20037;-82
2022/09/09 06:03:12;;;;;;;27.42;16.48;;;512.80;2380.80;;;;;;5052106;28;20056;-82
2022/09/09 06:05:38;;;;;;;23.45;14.32;;;512.80;2380.80;;;;;;5050897;28;20028;-82
2022/09/09 06:08:04;;;;;;;25.15;16.23;;;512.60;2380.80;;;;;;5047579;28;20040;-82
2022/09/09 06:10:30;;;;;;;22.73;15.05;;;512.80;2380.80;;;;;;5048712;28;20032;-83
2022/09/09 06:12:55;;;;;;;26.50;14.15;;;512.90;2380.80;;;;;;5047436;28;20082;-82
2022/09/09 06:15:21;;;;;;;20.67;14.77;;;512.90;2380.80;;;;;;5050100;28;20029;-83
2022/09/09 06:17:47;;;;;;;24.67;15.20;;;512.90;2380.80;;;;;;5052634;28;20021;-81
2022/09/09 06:20:13;;;;;;;21.33;14.65;;;512.90;2380.80;;;;;;5049135;28;20021;-81
2022/09/09 06:22:40;;;;;;;25.02;14.85;;;512.90;2380.80;;;;;;5046882;28;20395;-81
2022/09/09 06:25:08;;;;;;;22.55;16.70;;;512.80;2380.80;;;;;;5050285;28;20098;-83
2022/09/09 06:27:34;;;;;;;27.40;16.63;;;512.90;2380.80;;;;;;5054658;28;20060;-83
2022/09/09 06:29:59;;;;;;;31.13;18.27;;;537.60;2406.40;;;;;;5049845;28;20056;-81
2022/09/09 06:32:26;;;;;;;32.45;21.85;;;512.90;2380.80;;;;;;5050000;28;20037;-82
2022/09/09 06:34:52;;;;;;;27.42;20.10;;;512.90;2380.80;;;;;;5050834;28;20025;-82
2022/09/09 06:37:18;;;;;;;31.00;19.65;;;537.60;2406.40;;;;;;5080043;28;20544;-82
2022/09/09 06:39:44;;;;;;;26.77;18.98;;;512.90;2380.80;;;;;;5079834;28;20081;-82
2022/09/09 06:42:10;;;;;;;27.48;19.38;;;512.90;2380.80;;;;;;5047592;28;20028;-81
2022/09/09 06:44:36;;;;;;;27.45;18.05;;;512.90;2380.80;;;;;;5046777;28;20044;-82
2022/09/09 06:47:02;;;;;;;19.48;15.18;;;512.90;2380.80;;;;;;5050795;28;20474;-83
2022/09/09 06:49:28;;;;;;;23.30;16.20;;;538.20;2406.40;;;;;;5050972;28;20036;-83
2022/09/09 06:51:54;;;;;;;20.40;16.30;;;537.70;2406.40;;;;;;5046422;28;20028;-82
2022/09/09 06:54:21;;;;;;;24.15;17.23;;;537.80;2406.40;;;;;;5048100;28;20029;-82
2022/09/09 06:56:49;;;;;;;24.23;15.80;;;537.80;2406.40;;;;;;5051739;28;20106;-83
2022/09/09 06:59:15;;;;;;;16.23;14.57;;;537.80;2406.40;;;;;;5041874;28;20041;-83
2022/09/09 07:01:46;;;;;;;16.98;13.57;;;537.90;2406.40;;;;;;5047815;28;20489;-82
2022/09/09 07:04:13;;;;;;;19.02;13.07;;;537.90;2406.40;;;;;;5043676;28;20033;-83
2022/09/09 07:06:44;;;;;;;13.95;11.75;;;537.90;2406.40;;;;;;5052458;28;20147;-83
2022/09/09 07:09:12;;;;;;;21.33;14.25;;;537.80;2406.40;;;;;;5051565;28;20036;-83
2022/09/09 07:11:44;;;;;;;18.00;13.20;;;537.80;2406.40;;;;;;5047884;28;20033;-82
2022/09/09 07:14:14;;;;;;;23.17;15.10;;;537.70;2406.40;;;;;;5041609;28;20059;-82
2022/09/09 07:16:41;;;;;;;21.35;15.48;;;537.70;2406.40;;;;;;5044662;28;20036;-82
2022/09/09 07:19:07;;;;;;;20.25;16.10;;;512.90;2380.80;;;;;;5047964;28;20032;-81
2022/09/09 07:21:34;;;;;;;25.85;17.38;;;512.80;2380.80;;;;;;5043082;28;20047;-81
2022/09/09 07:24:00;;;;;;;25.35;17.85;;;512.70;2380.80;;;;;;5047003;28;20494;-81
2022/09/09 07:26:28;;;;;;;23.55;16.73;;;512.80;2380.80;;;;;;5038718;28;20086;-81
2022/09/09 07:28:56;;;;;;;21.05;16.85;;;512.60;2380.80;;;;;;5043585;28;20028;-82
2022/09/09 07:31:27;;;;;;;21.92;17.15;;;512.70;2380.80;;;;;;5046122;28;20033;-82
2022/09/09 07:33:53;;;;;;;22.55;17.95;;;512.80;2380.80;;;;;;5045135;28;20374;-82
2022/09/09 07:36:22;;;;;;;20.05;17.88;;;512.90;2380.80;;;;;;5041410;28;20087;-82
2022/09/09 07:38:54;;;;;;;22.58;16.73;;;512.90;2380.80;;;;;;5040554;28;20087;-81
2022/09/09 07:41:27;;;;;;;33.58;18.25;;;537.60;2406.40;;;;;;5045148;28;20064;-81
2022/09/09 07:43:54;;;;;;;25.55;18.35;;;512.90;2380.80;;;;;;5044599;28;20466;-81
2022/09/09 07:46:25;;;;;;;22.33;18.50;;;512.90;2380.80;;;;;;5073207;28;20083;-81
2022/09/09 07:48:54;;;;;;;29.77;24.33;;;512.80;2380.80;;;;;;5072033;28;20478;-81
2022/09/09 07:51:24;;;;;;;40.10;30.38;;;512.80;2380.80;;;;;;5039379;28;20433;-81
2022/09/09 07:54:01;;;;;;;38.92;31.23;;;512.90;2380.80;;;;;;5043272;28;20032;-78
2022/09/09 07:56:29;;;;;;;43.67;34.65;;;537.60;2406.40;;;;;;5022062;28;20037;-80
2022/09/09 07:58:56;;;;;;;60.83;42.35;;;537.70;2406.40;;;;;;5070232;28;20050;-80
2022/09/09 08:01:28;;;;;;;63.85;41.55;;;537.80;2406.40;;;;;;5044840;28;20064;-81
2022/09/09 08:04:06;;;;;;;44.38;31.15;;;537.80;2406.40;;;;;;5046631;28;20036;-81
2022/09/09 08:06:36;;;;;;;31.75;22.67;;;537.80;2406.40;;;;;;5044289;28;20091;-80
2022/09/09 08:09:02;;;;;;;27.50;19.23;;;537.70;2406.40;;;;;;5040612;28;20401;-80
2022/09/09 08:11:29;;;;;;;27.40;19.15;;;537.70;2406.40;;;;;;5071554;28;20041;-79
2022/09/09 08:13:55;;;;;;;27.88;19.80;;;537.80;2406.40;;;;;;5076871;28;20466;-79
2022/09/09 08:16:27;;;;;;;29.42;20.55;;;512.90;2380.80;;;;;;5042746;28;20025;-80
2022/09/09 08:18:57;;;;;;;25.90;18.52;;;537.80;2406.40;;;;;;5079643;28;20082;-78
2022/09/09 08:21:29;;;;;;;23.63;18.70;;;537.90;2406.40;;;;;;5038471;28;20037;-79
2022/09/09 08:23:56;;;;;;;25.20;17.00;;;538.00;2406.40;;;;;;5038859;28;20096;-79
2022/09/09 08:26:25;;;;;;;22.45;15.90;;;538.00;2406.40;;;;;;5036597;28;20087;-81
2022/09/09 08:28:52;;;;;;;26.80;16.05;;;;;;;;;;5043229;28;20113;-80
2022/09/09 08:31:20;;;;;;;21.60;17.63;;;538.10;2406.40;;;;;;5052482;28;20478;-81
2022/09/09 08:33:47;;;;;;;22.73;18.77;;;538.00;2406.40;;;;;;5050460;28;20382;-80
2022/09/09 08:36:18;;;;;;;25.63;20.42;;;537.90;2406.40;;;;;;5043505;28;20052;-82
2022/09/09 08:38:50;;;;;;;26.27;21.85;;;538.10;2406.40;;;;;;5046975;28;21320;-80
2022/09/09 08:41:44;;;;;;;21.90;18.83;;;538.10;2406.40;;;;;;5077942;28;20040;-81
2022/09/09 08:44:14;;;;;;;36.30;24.85;;;538.10;2406.40;;;;;;5041776;28;20039;-79
2022/09/09 08:46:56;;;;;;;27.40;20.33;;;538.10;2406.40;;;;;;5067979;28;20033;-81
2022/09/09 08:50:00;;;;;;;24.92;16.08;;;538.20;2406.40;;;;;;5036116;28;20029;-80
2022/09/09 08:52:36;;;;;;;23.67;16.02;;;538.20;2406.40;;;;;;5041894;28;20029;-81
2022/09/09 08:55:28;;;;;;;29.15;19.77;;;538.20;2406.40;;;;;;5048068;28;20021;-80
2022/09/09 08:57:56;;;;;;;25.52;19.98;;;538.00;2150.40;;;;;;5023884;28;20177;-80
2022/09/09 09:00:28;;;;;;;31.95;23.27;;;538.10;2406.40;;;;;;5043277;28;20021;-80
2022/09/09 09:02:54;;;;;;;37.40;26.23;;;538.10;2406.40;;;;;;5073435;28;20029;-81
2022/09/09 09:05:55;;;;;;;34.70;23.10;;;537.90;2406.40;;;;;;5044837;28;20033;-83
2022/09/09 09:08:33;;;;;;;31.35;23.35;;;538.10;2406.40;;;;;;5045210;28;20034;-81
2022/09/09 09:11:02;;;;;;;31.20;23.08;;;537.90;2406.40;;;;;;5045217;28;20092;-82
2022/09/09 09:13:37;;;;;;;32.88;23.30;;;537.80;2406.40;;;;;;5047245;28;20025;-81
2022/09/09 09:16:32;;;;;;;28.77;20.42;;;537.70;2406.40;;;;;;5048401;28;20091;-83
2022/09/09 09:18:59;;;;;;;29.52;21.88;;;537.80;2406.40;;;;;;5046912;28;20039;-80
2022/09/09 09:21:39;;;;;;;26.58;19.65;;;537.90;2406.40;;;;;;5045091;28;20471;-81
2022/09/09 09:24:15;;;;;;;30.88;22.58;;;538.10;2406.40;;;;;;5043143;28;20044;-81
2022/09/09 09:26:42;;;;;;;33.80;23.50;;;538.10;2406.40;;;;;;5047092;28;20163;-79
2022/09/09 09:29:14;;;;;;;34.33;21.25;;;538.10;2406.40;;;;;;5031842;28;20025;-80
2022/09/09 09:31:51;;;;;;;31.55;23.13;;;538.10;2406.40;;;;;;5030414;28;20045;-81
2022/09/09 09:34:17;;;;;;;29.30;20.92;;;538.10;2406.40;;;;;;5042333;28;20029;-81
2022/09/09 09:36:53;;;;;;;32.13;22.13;;;538.30;2406.40;;;;;;5039104;28;20053;-80
2022/09/09 09:39:24;;;;;;;33.78;25.45;;;538.40;2406.40;;;;;;5039573;28;20359;-80
2022/09/09 09:41:50;;;;;;;28.48;24.00;;;538.50;2406.40;;;;;;5043120;28;20072;-80
2022/09/09 09:44:26;;;;;;;33.33;26.20;;;563.30;2432.00;;;;;;5035636;28;20036;-83
2022/09/09 09:46:53;;;;;;;35.05;27.23;;;563.50;2432.00;;;;;;5064006;28;20026;-83
2022/09/09 09:49:19;;;;;;;30.50;23.00;;;563.60;2432.00;;;;;;5064692;28;20490;-84
2022/09/09 09:51:45;;;;;;;29.25;22.40;;;563.80;2432.00;;;;;;5071316;28;20033;-81
2022/09/09 09:54:27;;;;;;;26.13;19.95;;;564.00;2432.00;;;;;;5040061;28;20096;-80
2022/09/09 09:56:53;;;;;;;23.08;20.10;;;564.10;2432.00;;;;;;5035196;28;20028;-80
2022/09/09 09:59:36;;;;;;;26.08;20.17;;;588.80;2432.00;;;;;;5033397;28;20112;-82
2022/09/09 10:02:25;;;;;;;25.80;21.02;;;589.00;2432.00;;;;;;5044308;28;20187;-80
2022/09/09 10:05:06;;;;;;;27.15;17.73;;;589.10;2432.00;;;;;;5041226;28;20021;-81
2022/09/09 10:07:33;;;;;;;22.23;16.92;;;589.20;2432.00;;;;;;5036499;28;20029;-81
2022/09/09 10:09:59;;;;;;;22.27;14.82;;;589.20;2432.00;;;;;;5037664;28;20025;-80
2022/09/09 10:12:42;;;;;;;19.33;14.45;;;589.20;2432.00;;;;;;5036147;28;20036;-82
2022/09/09 10:15:22;;;;;;;17.35;13.93;;;589.30;2432.00;;;;;;5040663;28;20033;-82
2022/09/09 10:18:17;;;;;;;15.65;12.32;;;589.30;2432.00;;;;;;5044825;28;20025;-83
2022/09/09 10:20:47;;;;;;;18.10;12.70;;;589.30;2432.00;;;;;;5032333;28;20030;-81
2022/09/09 10:23:51;;;;;;;14.63;12.52;;;589.30;2432.00;;;;;;5030745;28;20025;-82
2022/09/09 10:26:20;;;;;;;23.88;13.32;;;589.30;2432.00;;;;;;5034313;28;20045;-83
2022/09/09 10:28:58;;;;;;;17.92;11.45;;;589.40;2432.00;;;;;;5043137;28;20060;-84
2022/09/09 10:32:02;;;;;;;16.65;11.45;;;589.70;2432.00;;;;;;5045079;28;20060;-84
2022/09/09 10:34:50;;;;;;;18.15;10.40;;;614.50;2432.00;;;;;;5038011;28;20383;-83
2022/09/09 10:37:42;;;;;;;14.73;10.02;;;614.60;2432.00;;;;;;5042727;28;20136;-82
2022/09/09 10:40:20;;;;;;;;;;;614.80;2432.00;;;;;;5040758;28;20018;-82
2022/09/09 10:42:46;;;;;;;14.40;9.13;;;614.80;2432.00;;;;;;5056707;28;20366;-83
2022/09/09 10:45:33;;;;;;;16.50;10.20;;;614.80;2432.00;;;;;;5041929;28;20147;-83
2022/09/09 10:47:59;;;;;;;15.55;10.10;;;615.00;2432.00;;;;;;5041886;28;20026;-82
2022/09/09 10:50:57;;;;;;;18.05;10.52;;;615.20;2432.00;;;;;;5035953;28;20095;-84
2022/09/09 10:53:37;;;;;;;14.63;9.15;;;640.00;2432.00;;;;;;5015370;28;20036;-83
2022/09/09 10:56:09;;;;;;;18.27;10.15;;;640.00;2432.00;;;;;;5041436;28;20029;-83
2022/09/09 10:58:38;;;;;;;;;;;640.20;2432.00;;;;;;5045581;28;20028;-83
2022/09/09 11:01:36;;;;;;;11.48;9.15;;;640.30;2432.00;;;;;;5043920;28;19913;-83
2022/09/09 11:04:25;;;;;;;17.13;10.20;;;640.40;2432.00;;;;;;5038611;28;20041;-83
2022/09/09 11:06:55;;;;;;;17.30;10.77;;;640.00;2432.00;;;;;;5082994;28;20036;-84
2022/09/09 11:09:30;;;;;;;18.25;10.30;;;640.40;2432.00;;;;;;5047905;28;20029;-84
2022/09/09 11:12:02;;;;;;;18.48;11.07;;;640.50;2432.00;;;;;;5050303;28;20060;-83
2022/09/09 11:14:38;;;;;;;13.02;9.00;;;640.40;2432.00;;;;;;5041535;28;20029;-83
2022/09/09 11:17:10;;;;;;;11.23;7.35;;;640.50;2432.00;;;;;;5037418;28;20040;-83
2022/09/09 11:19:40;;;;;;;13.57;6.78;;;640.50;2432.00;;;;;;5055686;28;20065;-83
2022/09/09 11:22:30;;;;;;;12.25;6.22;;;640.60;2432.00;;;;;;5046018;28;20025;-84
2022/09/09 11:25:00;;;;;;;16.23;6.63;;;640.70;2432.00;;;;;;5039875;28;20051;-81
2022/09/09 11:27:32;;;;;;;10.88;5.63;;;640.90;2432.00;;;;;;5061571;28;20033;-83
2022/09/09 11:30:16;;;;;;;14.70;6.77;;;665.60;2432.00;;;;;;5046450;28;20489;-83
2022/09/09 11:32:50;;;;;;;12.77;6.93;;;666.00;2432.00;;;;;;5049465;28;20025;-83
2022/09/09 11:35:22;;;;;;;20.60;7.32;;;666.30;2432.00;;;;;;5046014;28;20466;-83
2022/09/09 11:38:15;;;;;;;18.20;6.38;;;691.20;2432.00;;;;;;5044329;28;20042;-83
2022/09/09 11:40:41;;;;;;;12.00;6.25;;;691.30;2432.00;;;;;;5048789;28;20037;-81
2022/09/09 11:43:21;;;;;;;16.98;6.68;;;691.80;2432.00;;;;;;5044423;28;20095;-80
2022/09/09 11:45:58;;;;;;;13.48;6.55;;;691.90;2432.00;;;;;;5048191;28;20092;-81
2022/09/09 11:48:33;;;;;;;12.65;6.45;;;716.80;2432.00;;;;;;5050812;28;20029;-81
2022/09/09 11:51:08;;;;;;;19.58;5.82;;;717.00;2432.00;;;;;;5053183;28;20017;-82
2022/09/09 11:53:35;;;;;;;14.73;5.80;;;717.20;2432.00;;;;;;5047231;28;20056;-81
2022/09/09 11:56:12;;;;;;;10.73;4.82;;;717.40;2432.00;;;;;;5048549;28;20048;-82
2022/09/09 11:58:53;;;;;;;13.45;5.13;;;717.70;2432.00;;;;;;5045250;28;20093;-81
2022/09/09 12:01:32;;;;;;;17.38;4.95;;;742.50;2432.00;;;;;;5078712;28;20022;-82
2022/09/09 12:04:13;;;;;;;12.05;4.97;;;742.70;2432.00;;;;;;5048065;28;20056;-82
2022/09/09 12:06:46;;;;;;;13.35;4.05;;;742.80;2432.00;;;;;;5040916;28;20039;-81
2022/09/09 12:09:23;;;;;;;14.48;4.78;;;743.10;2432.00;;;;;;5038150;28;20145;-82
2022/09/09 12:11:50;;;;;;;10.68;5.55;;;768.10;2432.00;;;;;;5037800;28;20029;-82
2022/09/09 12:14:37;;;;;;;15.40;7.60;;;768.10;2432.00;;;;;;5043162;28;20021;-81
2022/09/09 12:17:19;;;;;;;8.88;5.10;;;768.40;2432.00;;;;;;5041159;28;20039;-81
2022/09/09 12:19:45;;;;;;;7.03;3.88;;;768.70;2432.00;;;;;;5039408;28;20021;-80
2022/09/09 12:22:35;;;;;;;9.63;4.78;;;768.90;2406.40;;;;;;5039049;28;20033;-81
2022/09/09 12:25:13;;;;;;;8.88;4.07;;;768.80;2432.00;;;;;;5045558;28;20056;-81
2022/09/09 12:28:02;;;;;;;13.23;4.63;;;768.90;2329.60;;;;;;5053047;28;20032;-82